createdAt,value
2023-03-17T00:01:53.874Z,1.70
2023-03-17T00:04:21.830Z,1.60
2023-03-17T00:06:49.098Z,1.90
2023-03-17T00:09:19.398Z,1.50
2023-03-17T00:11:47.427Z,1.40
2023-03-17T00:14:17.111Z,1.50
2023-03-17T00:16:46.107Z,1.70
2023-03-17T00:19:23.771Z,1.80
2023-03-17T00:21:52.585Z,1.50
2023-03-17T00:24:19.650Z,1.60
2023-03-17T00:26:46.654Z,1.50
2023-03-17T00:29:13.400Z,1.40
2023-03-17T00:31:40.496Z,1.30
2023-03-17T00:34:16.100Z,1.70
2023-03-17T00:36:43.959Z,1.10
2023-03-17T00:41:39.940Z,1.30
2023-03-17T00:44:06.656Z,1.80
2023-03-17T00:46:37.554Z,1.60
2023-03-17T00:49:19.068Z,1.20
2023-03-17T00:51:46.507Z,1.20
2023-03-17T00:54:15.255Z,1.00
2023-03-17T00:56:42.084Z,0.80
2023-03-17T00:59:34.797Z,1.10
2023-03-17T01:02:01.473Z,1.10
2023-03-17T01:04:29.035Z,1.40
2023-03-17T01:06:57.920Z,1.20
2023-03-17T01:09:25.660Z,1.40
2023-03-17T01:11:52.463Z,1.20
2023-03-17T01:14:19.050Z,1.10
2023-03-17T01:16:47.111Z,1.00
2023-03-17T01:19:14.779Z,1.10
2023-03-17T01:21:41.982Z,1.20
2023-03-17T01:24:08.897Z,0.90
2023-03-17T01:26:35.938Z,1.10
2023-03-17T01:29:04.291Z,1.10
2023-03-17T01:31:30.989Z,0.80
2023-03-17T01:34:05.647Z,0.90
2023-03-17T01:36:32.327Z,0.90
2023-03-17T01:38:59.950Z,0.90
2023-03-17T01:41:26.740Z,0.90
2023-03-17T01:43:53.965Z,0.90
2023-03-17T01:46:32.110Z,1.40
2023-03-17T01:49:06.222Z,1.00
2023-03-17T01:51:40.367Z,0.90
2023-03-17T01:54:16.547Z,1.30
2023-03-17T01:56:45.061Z,0.90
2023-03-17T01:59:16.053Z,1.00
2023-03-17T02:01:44.532Z,1.30
2023-03-17T02:04:11.540Z,0.90
2023-03-17T02:06:55.095Z,1.00
2023-03-17T02:09:28.705Z,0.90
2023-03-17T02:11:56.344Z,0.90
2023-03-17T02:14:23.368Z,1.20
2023-03-17T02:16:50.869Z,1.00
2023-03-17T02:19:18.776Z,0.80
2023-03-17T02:21:47.043Z,0.80
2023-03-17T02:24:27.621Z,1.20
2023-03-17T02:26:56.412Z,0.90
2023-03-17T02:31:57.478Z,1.00
2023-03-17T02:34:24.119Z,1.20
2023-03-17T02:36:52.638Z,1.20
2023-03-17T02:39:19.412Z,1.20
2023-03-17T02:41:49.436Z,0.90
2023-03-17T02:44:16.506Z,0.80
2023-03-17T02:46:43.636Z,1.70
2023-03-17T02:49:11.325Z,1.60
2023-03-17T02:51:38.284Z,1.30
2023-03-17T02:54:05.250Z,1.00
2023-03-17T02:56:32.638Z,1.30
2023-03-17T02:59:01.958Z,1.50
2023-03-17T03:01:30.181Z,1.30
2023-03-17T03:03:57.666Z,2.30
2023-03-17T03:06:24.339Z,1.60
2023-03-17T03:08:51.178Z,1.60
2023-03-17T03:11:18.690Z,1.80
2023-03-17T03:13:46.022Z,2.20
2023-03-17T03:16:12.695Z,3.30
2023-03-17T03:18:40.785Z,3.00
2023-03-17T03:21:09.024Z,1.10
2023-03-17T03:23:35.615Z,1.10
2023-03-17T03:26:07.196Z,1.10
2023-03-17T03:28:35.835Z,1.20
2023-03-17T03:31:03.104Z,1.10
2023-03-17T03:33:31.179Z,1.30
2023-03-17T03:35:58.661Z,1.20
2023-03-17T03:38:26.879Z,1.10
2023-03-17T03:40:53.848Z,0.90
2023-03-17T03:43:23.736Z,1.00
2023-03-17T03:45:51.391Z,1.10
2023-03-17T03:48:18.357Z,0.90
2023-03-17T03:50:46.232Z,1.10
2023-03-17T03:53:14.716Z,1.00
2023-03-17T03:55:42.249Z,1.10
2023-03-17T03:58:12.109Z,1.00
2023-03-17T04:00:38.624Z,0.90
2023-03-17T04:03:06.121Z,0.90
2023-03-17T04:05:32.963Z,1.40
2023-03-17T04:08:01.729Z,1.30
2023-03-17T04:10:28.994Z,1.20
2023-03-17T04:12:55.863Z,1.60
2023-03-17T04:15:24.663Z,1.40
2023-03-17T04:17:51.434Z,1.50
2023-03-17T04:20:18.216Z,1.30
2023-03-17T04:22:46.491Z,1.90
2023-03-17T04:25:13.840Z,1.60
2023-03-17T04:27:41.845Z,2.20
2023-03-17T04:30:13.177Z,2.30
2023-03-17T04:32:41.152Z,4.20
2023-03-17T04:35:11.231Z,5.40
2023-03-17T04:37:38.693Z,6.90
2023-03-17T04:40:10.729Z,6.30
2023-03-17T04:42:38.595Z,6.40
2023-03-17T04:45:06.166Z,10.40
2023-03-17T04:47:33.932Z,12.10
2023-03-17T04:50:01.558Z,5.30
2023-03-17T04:52:28.520Z,3.80
2023-03-17T04:54:56.268Z,3.20
2023-03-17T04:57:24.342Z,2.60
2023-03-17T04:59:51.151Z,3.10
2023-03-17T05:02:18.253Z,2.70
2023-03-17T05:04:52.915Z,2.10
2023-03-17T05:07:20.276Z,2.40
2023-03-17T05:09:47.558Z,2.60
2023-03-17T05:12:15.932Z,2.20
2023-03-17T05:14:42.502Z,2.30
2023-03-17T05:17:10.348Z,2.40
2023-03-17T05:19:38.978Z,2.70
2023-03-17T05:22:05.998Z,2.00
2023-03-17T05:24:32.858Z,1.50
2023-03-17T05:27:00.439Z,1.90
2023-03-17T05:29:27.195Z,1.80
2023-03-17T05:31:54.145Z,1.90
2023-03-17T05:34:20.747Z,2.00
2023-03-17T05:36:47.405Z,2.30
2023-03-17T05:39:14.853Z,1.90
2023-03-17T05:41:42.040Z,1.90
2023-03-17T05:44:13.881Z,2.10
2023-03-17T05:46:43.440Z,2.60
2023-03-17T05:49:10.164Z,2.50
2023-03-17T05:51:38.983Z,2.20
2023-03-17T05:54:05.501Z,2.70
2023-03-17T05:56:34.124Z,1.80
2023-03-17T05:59:01.103Z,1.30
2023-03-17T06:01:31.898Z,1.60
2023-03-17T06:04:01.259Z,2.10
2023-03-17T06:06:28.215Z,2.20
2023-03-17T06:08:55.595Z,2.10
2023-03-17T06:11:22.267Z,2.30
2023-03-17T06:13:51.011Z,1.40
2023-03-17T06:16:17.735Z,1.80
2023-03-17T06:18:45.644Z,2.20
2023-03-17T06:21:12.944Z,2.10
2023-03-17T06:23:45.663Z,2.30
2023-03-17T06:26:18.177Z,2.60
2023-03-17T06:28:46.307Z,2.40
2023-03-17T06:31:13.065Z,1.60
2023-03-17T06:33:39.944Z,1.60
2023-03-17T06:36:07.550Z,1.70
2023-03-17T06:38:34.381Z,1.90
2023-03-17T06:41:01.849Z,2.20
2023-03-17T06:43:31.472Z,2.40
2023-03-17T06:46:06.603Z,2.00
2023-03-17T06:48:34.657Z,1.70
2023-03-17T06:51:02.022Z,2.20
2023-03-17T06:53:28.889Z,2.90
2023-03-17T06:55:55.757Z,2.80
2023-03-17T06:58:23.263Z,4.50
2023-03-17T07:00:53.438Z,15.50
2023-03-17T07:03:21.861Z,6.10
2023-03-17T07:05:49.440Z,3.90
2023-03-17T07:08:17.307Z,3.60
2023-03-17T07:10:45.316Z,3.50
2023-03-17T07:13:14.171Z,3.50
2023-03-17T07:15:41.338Z,3.20
2023-03-17T07:18:09.262Z,2.70
2023-03-17T07:20:37.620Z,2.60
2023-03-17T07:23:04.538Z,2.50
2023-03-17T07:25:32.081Z,2.10
2023-03-17T07:27:59.202Z,2.40
2023-03-17T07:30:28.004Z,3.10
2023-03-17T07:32:54.949Z,3.00
2023-03-17T07:35:22.863Z,3.00
2023-03-17T07:37:49.913Z,2.40
2023-03-17T07:40:18.197Z,2.60
2023-03-17T07:42:49.308Z,2.00
2023-03-17T07:45:16.162Z,2.30
2023-03-17T07:47:43.005Z,2.80
2023-03-17T07:50:10.462Z,2.70
2023-03-17T07:55:11.953Z,2.30
2023-03-17T07:57:39.118Z,2.20
2023-03-17T08:00:10.037Z,2.60
2023-03-17T08:05:08.022Z,2.60
2023-03-17T08:07:37.158Z,2.30
2023-03-17T08:10:05.390Z,1.70
2023-03-17T08:12:32.712Z,2.00
2023-03-17T08:15:03.338Z,2.60
2023-03-17T08:17:31.480Z,2.30
2023-03-17T08:19:59.848Z,2.50
2023-03-17T08:22:32.964Z,2.30
2023-03-17T08:24:59.915Z,3.30
2023-03-17T08:27:26.845Z,2.80
2023-03-17T08:29:58.462Z,1.90
2023-03-17T08:32:26.400Z,2.60
2023-03-17T08:34:58.344Z,2.80
2023-03-17T08:37:26.420Z,2.60
2023-03-17T08:39:53.760Z,3.10
2023-03-17T08:42:21.037Z,2.70
2023-03-17T08:44:49.049Z,2.30
2023-03-17T08:47:25.265Z,2.00
2023-03-17T08:49:52.898Z,2.00
2023-03-17T08:52:20.012Z,2.30
2023-03-17T08:54:46.909Z,2.20
2023-03-17T08:57:15.686Z,2.40
2023-03-17T08:59:43.150Z,2.80
2023-03-17T09:02:14.314Z,2.40
2023-03-17T09:04:41.149Z,2.10
2023-03-17T09:07:10.045Z,3.00
2023-03-17T09:09:37.093Z,4.20
2023-03-17T09:12:05.563Z,3.90
2023-03-17T09:14:42.744Z,4.50
2023-03-17T09:17:10.813Z,5.40
2023-03-17T09:19:38.176Z,7.20
2023-03-17T09:22:05.428Z,7.20
2023-03-17T09:24:33.017Z,4.60
2023-03-17T09:27:05.723Z,4.40
2023-03-17T09:29:33.571Z,4.90
2023-03-17T09:32:01.003Z,4.20
2023-03-17T09:34:29.203Z,3.50
2023-03-17T09:36:56.534Z,2.60
2023-03-17T09:39:23.920Z,2.50
2023-03-17T09:41:58.239Z,2.00
2023-03-17T09:44:41.150Z,2.70
2023-03-17T09:47:17.764Z,2.50
2023-03-17T09:49:48.054Z,2.30
2023-03-17T09:52:18.920Z,2.50
2023-03-17T09:54:49.581Z,2.50
2023-03-17T09:57:20.655Z,2.40
2023-03-17T09:59:50.229Z,2.30
2023-03-17T10:02:27.966Z,2.00
2023-03-17T10:04:55.474Z,2.20
2023-03-17T10:07:39.131Z,2.70
2023-03-17T10:10:20.955Z,2.30
2023-03-17T10:13:07.926Z,2.00
2023-03-17T10:15:40.536Z,2.20
2023-03-17T10:18:09.605Z,1.80
2023-03-17T10:20:38.993Z,1.50
2023-03-17T10:23:06.957Z,2.20
2023-03-17T10:25:35.547Z,2.40
2023-03-17T10:28:23.028Z,2.40
2023-03-17T10:30:50.935Z,2.40
2023-03-17T10:33:18.160Z,2.20
2023-03-17T10:35:46.277Z,1.70
2023-03-17T10:38:20.363Z,2.30
2023-03-17T10:40:59.589Z,2.40
2023-03-17T10:43:30.526Z,2.00
2023-03-17T10:46:00.968Z,2.20
2023-03-17T10:48:28.722Z,1.90
2023-03-17T10:50:57.736Z,2.00
2023-03-17T10:53:27.956Z,2.90
2023-03-17T10:56:25.486Z,2.60
2023-03-17T10:58:54.398Z,2.30
2023-03-17T11:01:39.761Z,2.60
2023-03-17T11:04:33.717Z,2.90
2023-03-17T11:07:12.298Z,2.70
2023-03-17T11:09:38.984Z,3.90
2023-03-17T11:12:32.173Z,3.50
2023-03-17T11:15:09.571Z,3.20
2023-03-17T11:17:40.754Z,4.70
2023-03-17T11:20:41.678Z,3.00
2023-03-17T11:23:21.785Z,2.40
2023-03-17T11:26:04.753Z,2.20
2023-03-17T11:28:35.541Z,1.90
2023-03-17T11:31:09.943Z,2.40
2023-03-17T11:34:01.885Z,2.20
2023-03-17T11:36:35.584Z,2.40
2023-03-17T11:39:27.816Z,2.20
2023-03-17T11:42:42.414Z,2.60
2023-03-17T11:45:12.686Z,2.30
2023-03-17T11:48:07.675Z,2.60
2023-03-17T11:50:38.820Z,3.10
2023-03-17T11:53:31.165Z,2.80
2023-03-17T11:56:06.661Z,3.10
2023-03-17T11:58:47.770Z,2.60
2023-03-17T12:01:17.693Z,1.80
2023-03-17T12:03:49.624Z,2.50
2023-03-17T12:06:34.428Z,2.60
2023-03-17T12:09:10.615Z,3.00
2023-03-17T12:11:39.995Z,3.00
2023-03-17T12:14:31.953Z,2.40
2023-03-17T12:17:04.709Z,3.00
2023-03-17T12:20:09.978Z,2.60
2023-03-17T12:23:10.501Z,2.70
2023-03-17T12:25:51.380Z,2.60
2023-03-17T12:28:22.469Z,2.90
2023-03-17T12:31:04.018Z,2.40
2023-03-17T12:33:46.502Z,3.30
2023-03-17T12:36:14.815Z,2.40
2023-03-17T12:38:44.794Z,2.10
2023-03-17T12:41:56.172Z,2.00
2023-03-17T12:44:45.423Z,2.30
2023-03-17T12:47:42.907Z,2.60
2023-03-17T12:51:05.430Z,2.50
2023-03-17T12:53:35.113Z,2.20
2023-03-17T12:56:21.625Z,2.70
2023-03-17T12:58:50.550Z,2.40
2023-03-17T13:01:37.470Z,2.70
2023-03-17T13:04:26.552Z,2.30
2023-03-17T13:06:57.710Z,2.40
2023-03-17T13:09:31.848Z,3.30
2023-03-17T13:14:42.705Z,2.40
2023-03-17T13:17:11.910Z,2.70
2023-03-17T13:19:48.088Z,2.10
2023-03-17T13:22:21.166Z,2.40
2023-03-17T13:24:53.270Z,2.70
2023-03-17T13:27:29.424Z,2.50
2023-03-17T13:30:21.819Z,2.60
2023-03-17T13:32:56.669Z,3.20
2023-03-17T13:35:47.278Z,3.50
2023-03-17T13:38:36.755Z,2.90
2023-03-17T13:41:06.286Z,3.70
2023-03-17T13:43:49.744Z,4.00
2023-03-17T13:46:33.366Z,3.50
2023-03-17T13:49:19.376Z,4.50
2023-03-17T13:52:00.399Z,3.60
2023-03-17T13:54:30.420Z,4.00
2023-03-17T13:57:26.009Z,4.40
2023-03-17T14:00:21.154Z,3.70
2023-03-17T14:02:49.872Z,3.60
2023-03-17T14:05:24.073Z,4.30
2023-03-17T14:08:00.664Z,4.30
2023-03-17T14:10:31.439Z,3.30
2023-03-17T14:13:31.009Z,3.50
2023-03-17T14:16:20.272Z,3.50
2023-03-17T14:18:58.678Z,3.30
2023-03-17T14:21:35.541Z,3.60
2023-03-17T14:24:17.753Z,3.80
2023-03-17T14:26:47.719Z,4.10
2023-03-17T14:29:15.216Z,5.40
2023-03-17T14:31:49.191Z,3.80
2023-03-17T14:34:17.010Z,4.20
2023-03-17T14:36:44.349Z,4.20
2023-03-17T14:39:22.615Z,4.00
2023-03-17T14:42:01.092Z,3.60
2023-03-17T14:44:34.834Z,3.60
2023-03-17T14:47:10.693Z,3.60
2023-03-17T14:49:39.354Z,4.00
2023-03-17T14:52:26.459Z,3.50
2023-03-17T14:54:54.919Z,3.40
2023-03-17T14:57:26.598Z,4.10
2023-03-17T15:00:22.033Z,3.00
2023-03-17T15:02:59.556Z,3.20
2023-03-17T15:05:37.680Z,4.10
2023-03-17T15:08:36.083Z,3.50
2023-03-17T15:11:04.341Z,3.70
2023-03-17T15:13:34.248Z,3.60
2023-03-17T15:16:15.957Z,3.00
2023-03-17T15:18:44.219Z,3.80
2023-03-17T15:21:34.483Z,3.60
2023-03-17T15:24:27.106Z,3.90
2023-03-17T15:27:20.726Z,3.70
2023-03-17T15:29:50.345Z,3.60
2023-03-17T15:32:20.274Z,4.50
2023-03-17T15:34:48.227Z,4.40
2023-03-17T15:37:23.633Z,4.20
2023-03-17T15:39:52.521Z,3.80
2023-03-17T15:42:21.198Z,3.90
2023-03-17T15:44:48.154Z,4.10
2023-03-17T15:47:16.756Z,4.40
2023-03-17T15:49:44.714Z,4.10
2023-03-17T15:52:24.770Z,4.60
2023-03-17T15:54:58.656Z,4.20
2023-03-17T15:57:26.634Z,3.80
2023-03-17T15:59:55.405Z,4.10
2023-03-17T16:02:33.285Z,3.80
2023-03-17T16:05:01.777Z,4.30
2023-03-17T16:07:30.295Z,4.30
2023-03-17T16:09:57.069Z,4.60
2023-03-17T16:12:24.837Z,4.40
2023-03-17T16:14:54.720Z,4.30
2023-03-17T16:17:28.874Z,4.20
2023-03-17T16:19:56.270Z,3.80
2023-03-17T16:22:39.089Z,6.00
2023-03-17T16:25:29.596Z,4.10
2023-03-17T16:27:59.396Z,4.70
2023-03-17T16:30:31.495Z,5.70
2023-03-17T16:33:11.796Z,5.40
2023-03-17T16:35:41.501Z,4.90
2023-03-17T16:38:11.488Z,4.90
2023-03-17T16:40:42.321Z,6.10
2023-03-17T16:43:32.342Z,6.70
2023-03-17T16:46:00.585Z,9.40
2023-03-17T16:48:30.500Z,9.70
2023-03-17T16:50:57.870Z,10.30
2023-03-17T16:53:24.976Z,10.10
2023-03-17T16:55:53.036Z,10.10
2023-03-17T16:58:25.950Z,9.70
2023-03-17T17:00:58.388Z,11.40
2023-03-17T17:03:26.109Z,11.40
2023-03-17T17:05:54.856Z,10.20
2023-03-17T17:08:22.257Z,10.80
2023-03-17T17:10:49.680Z,11.50
2023-03-17T17:13:17.688Z,11.60
2023-03-17T17:15:44.370Z,8.90
2023-03-17T17:18:16.101Z,9.20
2023-03-17T17:20:49.344Z,8.40
2023-03-17T17:23:21.386Z,6.90
2023-03-17T17:25:49.913Z,6.70
2023-03-17T17:28:22.133Z,6.50
2023-03-17T17:30:52.431Z,5.80
2023-03-17T17:33:26.289Z,5.60
2023-03-17T17:35:53.820Z,5.40
2023-03-17T17:38:28.079Z,4.60
2023-03-17T17:40:56.590Z,4.90
2023-03-17T17:43:24.350Z,5.10
2023-03-17T17:45:55.356Z,5.10
2023-03-17T17:48:23.802Z,4.50
2023-03-17T17:50:51.142Z,4.60
2023-03-17T17:53:18.896Z,4.80
2023-03-17T17:55:47.805Z,4.10
2023-03-17T17:58:17.750Z,4.30
2023-03-17T18:00:44.956Z,5.20
2023-03-17T18:03:11.590Z,4.90
2023-03-17T18:05:39.792Z,4.90
2023-03-17T18:08:06.774Z,4.80
2023-03-17T18:10:38.210Z,4.60
2023-03-17T18:13:05.060Z,4.40
2023-03-17T18:15:31.896Z,4.30
2023-03-17T18:18:03.740Z,5.00
2023-03-17T18:20:31.399Z,5.20
2023-03-17T18:22:58.472Z,6.10
2023-03-17T18:25:26.611Z,5.30
2023-03-17T18:27:55.808Z,4.90
2023-03-17T18:30:28.130Z,4.60
2023-03-17T18:32:57.880Z,4.60
2023-03-17T18:35:25.503Z,3.90
2023-03-17T18:37:53.284Z,5.60
2023-03-17T18:40:20.646Z,5.30
2023-03-17T18:42:47.426Z,5.40
2023-03-17T18:45:16.429Z,5.30
2023-03-17T18:47:44.623Z,5.40
2023-03-17T18:50:14.939Z,5.00
2023-03-17T18:52:43.427Z,5.10
2023-03-17T18:55:11.990Z,5.80
2023-03-17T18:57:39.217Z,5.90
2023-03-17T19:00:07.953Z,6.00
2023-03-17T19:02:38.749Z,5.50
2023-03-17T19:05:06.994Z,6.10
2023-03-17T19:07:35.041Z,6.10
2023-03-17T19:10:04.021Z,5.50
2023-03-17T19:12:31.380Z,5.60
2023-03-17T19:14:59.556Z,5.90
2023-03-17T19:17:28.154Z,6.50
2023-03-17T19:19:55.207Z,6.30
2023-03-17T19:22:23.190Z,7.10
2023-03-17T19:24:50.317Z,6.60
2023-03-17T19:27:17.531Z,7.20
2023-03-17T19:29:48.680Z,7.00
2023-03-17T19:32:16.618Z,6.90
2023-03-17T19:34:43.366Z,7.50
2023-03-17T19:37:10.488Z,7.60
2023-03-17T19:39:44.341Z,7.90
2023-03-17T19:42:12.058Z,7.40
2023-03-17T19:44:40.135Z,8.10
2023-03-17T19:47:12.319Z,6.00
2023-03-17T19:49:39.571Z,5.90
2023-03-17T19:52:07.687Z,5.70
2023-03-17T19:54:37.672Z,5.70
2023-03-17T19:57:05.303Z,5.50
2023-03-17T19:59:32.888Z,5.60
2023-03-17T20:02:00.302Z,5.80
2023-03-17T20:04:27.304Z,5.60
2023-03-17T20:06:57.340Z,6.00
2023-03-17T20:09:26.498Z,5.00
2023-03-17T20:12:38.308Z,6.00
2023-03-17T20:15:07.842Z,5.70
2023-03-17T20:17:36.867Z,7.00
2023-03-17T20:20:10.783Z,7.40
2023-03-17T20:22:40.422Z,6.70
2023-03-17T20:25:10.394Z,6.70
2023-03-17T20:27:40.481Z,7.00
2023-03-17T20:30:12.415Z,6.70
2023-03-17T20:32:40.702Z,6.20
2023-03-17T20:35:09.711Z,6.70
2023-03-17T20:37:38.835Z,6.60
2023-03-17T20:40:13.837Z,6.70
2023-03-17T20:42:42.392Z,7.30
2023-03-17T20:45:10.431Z,6.90
2023-03-17T20:47:41.628Z,8.00
2023-03-17T20:50:10.244Z,7.60
2023-03-17T20:52:39.853Z,7.30
2023-03-17T20:55:09.597Z,12.00
2023-03-17T20:57:38.156Z,14.10
2023-03-17T21:00:10.429Z,11.80
2023-03-17T21:02:39.040Z,12.20
2023-03-17T21:05:08.501Z,9.80
2023-03-17T21:07:37.496Z,8.10
2023-03-17T21:10:06.155Z,7.90
2023-03-17T21:12:34.390Z,9.50
2023-03-17T21:15:03.800Z,8.00
2023-03-17T21:17:32.974Z,9.00
2023-03-17T21:20:03.406Z,8.00
2023-03-17T21:22:34.524Z,8.20
2023-03-17T21:25:05.424Z,7.00
2023-03-17T21:27:37.095Z,7.60
2023-03-17T21:30:12.376Z,7.30
2023-03-17T21:32:45.113Z,7.90
2023-03-17T21:35:13.590Z,8.70
2023-03-17T21:37:41.807Z,9.20
2023-03-17T21:40:12.800Z,9.10
2023-03-17T21:42:42.024Z,9.50
2023-03-17T21:45:10.802Z,9.10
2023-03-17T21:47:41.945Z,8.10
2023-03-17T21:50:11.183Z,7.90
2023-03-17T21:52:41.134Z,7.60
2023-03-17T21:55:10.424Z,7.70
2023-03-17T21:57:40.295Z,7.90
2023-03-17T22:00:09.759Z,9.70
2023-03-17T22:02:46.325Z,10.20
2023-03-17T22:05:14.569Z,9.50
2023-03-17T22:07:43.895Z,9.80
2023-03-17T22:10:11.994Z,10.80
2023-03-17T22:12:40.321Z,10.10
2023-03-17T22:15:10.497Z,11.00
2023-03-17T22:17:39.816Z,9.90
2023-03-17T22:20:09.224Z,9.30
2023-03-17T22:22:38.589Z,8.00
2023-03-17T22:25:07.403Z,8.20
2023-03-17T22:27:35.757Z,8.00
2023-03-17T22:30:06.786Z,7.60
2023-03-17T22:32:36.166Z,8.50
2023-03-17T22:35:08.884Z,7.90
2023-03-17T22:37:36.839Z,8.00
2023-03-17T22:40:06.500Z,9.10
2023-03-17T22:42:37.369Z,8.20
2023-03-17T22:45:06.432Z,8.40
2023-03-17T22:47:35.057Z,8.20
2023-03-17T22:50:03.127Z,8.40
2023-03-17T22:52:32.926Z,9.10
2023-03-17T22:55:02.673Z,10.40
2023-03-17T22:57:30.975Z,9.80
2023-03-17T22:59:59.283Z,9.70
2023-03-17T23:02:27.430Z,10.70
2023-03-17T23:04:55.415Z,8.40
2023-03-17T23:07:24.366Z,9.50
2023-03-17T23:09:52.304Z,9.00
2023-03-17T23:12:24.630Z,9.60
2023-03-17T23:14:53.219Z,9.40
2023-03-17T23:17:21.879Z,9.60
2023-03-17T23:19:49.954Z,10.10
2023-03-17T23:22:18.316Z,10.00
2023-03-17T23:24:47.321Z,9.80
2023-03-17T23:27:15.760Z,10.00
2023-03-17T23:29:44.822Z,10.00
2023-03-17T23:32:15.616Z,9.80
2023-03-17T23:34:45.088Z,10.10
2023-03-17T23:37:13.145Z,9.80
2023-03-17T23:39:41.837Z,10.80
2023-03-17T23:42:11.323Z,8.40
2023-03-17T23:44:41.893Z,9.30
2023-03-17T23:47:10.604Z,9.20
2023-03-17T23:49:39.201Z,9.80
2023-03-17T23:52:09.242Z,9.20
2023-03-17T23:54:38.847Z,10.10
2023-03-17T23:57:08.092Z,10.60
2023-03-17T23:59:36.165Z,10.00
